รายงานสภาพอากาศบริเวณสนามบิน
14 สิงหาคม 2565 เวลา 22:30 น.
เชียงใหม่
   VTCC

ทิศและความเร็วลม

ลมตะวันตกเฉียงใต้

7 Knots
   ทัศนวิสัย                  10 km

   ความกดอากาศ      1009 hPa

สภาพอากาศ

เมฆส่วนมาก

28℃
อุณหภูมิ
24℃
อุณหภูมิจุดน้ำค้าง
79%
ความชื้นสัมพัทธ์
METAR 24 ชั่วโมง

ADDS - METARS form results

METAR VTCC 141530Z 21007KT 9999 BKN035 28/24 Q1009 NOSIG=
METAR VTCC 141500Z 19007KT 9999 BKN035 28/24 Q1009 NOSIG=
METAR VTCC 141430Z 21005KT 180V240 9999 BKN035 28/24 Q1008 NOSIG=
METAR VTCC 141400Z 25006KT 9999 BKN035 28/24 Q1008 NOSIG=
METAR VTCC 141330Z 25004KT 9999 FEW025CB BKN035 29/24 Q1008 NOSIG=
METAR VTCC 141300Z VRB02KT 9999 FEW025CB BKN035 29/25 Q1008 NOSIG=
METAR VTCC 141230Z 28004KT 9999 VCSH FEW025CB BKN035 29/25 Q1007 NOSIG=
METAR VTCC 141200Z 16002KT 9999 VCSH FEW025CB SCT035 31/23 Q1007
       TEMPO -TSRA=
METAR VTCC 141130Z 14003KT 9999 FEW025CB SCT035 31/22 Q1007 NOSIG=
METAR VTCC 141100Z 13004KT 100V160 9999 SCT035 32/23 Q1007 NOSIG=
METAR VTCC 141030Z 13004KT 080V160 9999 SCT035 32/23 Q1007 NOSIG=
METAR VTCC 141000Z 11006KT 060V170 9999 SCT035 32/23 Q1007 NOSIG=
METAR VTCC 140930Z VRB02KT 9999 SCT035 33/23 Q1007 NOSIG=
METAR VTCC 140900Z VRB03KT 9999 SCT035 32/23 Q1007 NOSIG=
METAR VTCC 140830Z 20004KT 160V270 9999 SCT035 32/23 Q1008 NOSIG=
METAR VTCC 140800Z VRB03KT 9999 SCT035 32/24 Q1008 NOSIG=
METAR VTCC 140730Z VRB02KT 9999 SCT035 32/23 Q1008 NOSIG=
METAR VTCC 140700Z 08004KT 010V150 9999 SCT035 32/23 Q1009 NOSIG=
METAR VTCC 140630Z VRB05KT 9999 SCT035 31/24 Q1009 NOSIG=
METAR VTCC 140600Z VRB04KT 9999 SCT035 31/23 Q1010 NOSIG=
METAR VTCC 140530Z VRB04KT 9999 SCT035 31/23 Q1010 NOSIG=
METAR VTCC 140500Z 12006KT 070V170 9999 BKN035 30/24 Q1011 NOSIG=
METAR VTCC 140430Z 10004KT 010V150 9999 BKN035 29/23 Q1011 NOSIG=
METAR VTCC 140400Z 09003KT 040V130 9999 BKN035 29/23 Q1011 NOSIG=
METAR VTCC 140330Z VRB02KT 9999 SCT035 29/23 Q1011 NOSIG=
METAR VTCC 140300Z VRB02KT 9999 SCT035 29/24 Q1011 NOSIG=
METAR VTCC 140230Z 36003KT 320V040 9999 SCT035 28/23 Q1011 NOSIG=
METAR VTCC 140200Z VRB02KT 9999 FEW018 BKN032 27/24 Q1011 NOSIG=
METAR VTCC 140130Z VRB02KT 9999 FEW018 BKN032 26/24 Q1011 NOSIG=
METAR VTCC 140100Z VRB01KT 9999 FEW018 BKN032 26/24 Q1011 NOSIG=
METAR VTCC 140030Z VRB01KT 9999 BKN032 25/24 Q1011 NOSIG=
METAR VTCC 140000Z VRB02KT 9999 BKN032 24/23 Q1010 NOSIG=
METAR VTCC 132330Z 26004KT 9999 BKN032 24/23 Q1010 NOSIG=
METAR VTCC 132300Z 00000KT 9999 FEW018 SCT035 24/23 Q1010 NOSIG=
METAR VTCC 132230Z 35002KT 9999 BKN032 24/24 Q1010 NOSIG=
METAR VTCC 132200Z VRB02KT 9999 BKN032 24/24 Q1009 NOSIG=
METAR VTCC 132130Z 00000KT 9999 BKN032 24/24 Q1009 NOSIG=
METAR VTCC 132100Z VRB02KT 9999 BKN032 25/24 Q1009 NOSIG=
METAR VTCC 132030Z 01003KT 350V060 9999 BKN032 24/24 Q1009 NOSIG=
METAR VTCC 132000Z 00000KT 9999 BKN032 24/24 Q1009 NOSIG=
METAR VTCC 131930Z 29002KT 9999 BKN032 24/24 Q1009 NOSIG=
METAR VTCC 131900Z 24003KT 9999 BKN032 25/24 Q1010 NOSIG=
METAR VTCC 131830Z VRB02KT 9999 BKN032 25/24 Q1010 NOSIG=
METAR VTCC 131800Z 18002KT 9999 BKN032 25/24 Q1010 NOSIG=
METAR VTCC 131730Z 15003KT 9999 BKN032 25/24 Q1010 NOSIG=
METAR VTCC 131700Z VRB01KT 9999 BKN032 26/24 Q1010 NOSIG=
METAR VTCC 131630Z VRB01KT 9999 BKN032 26/24 Q1010 NOSIG=
METAR VTCC 131600Z 13002KT 9999 BKN032 26/24 Q1010 NOSIG=

TAF VTCC 141100Z 1412/1518 16005KT 9999 SCT035
       BECMG 1416/1418 34005KT
       BECMG 1422/1424 20005KT
       TEMPO 1502/1508 30010G25KT 4000 TSRA FEW025CB BKN035
       BECMG 1507/1509 36005KT
       TEMPO 1513/1517 -TSRA FEW025CB BKN035=